Mandarin Grace — 9V8352 — position and weather

sailwx.info

Track history (hours):
 
Tides and Currents Weather Stations Pressure Air Temp Water Temp Dewpoint Dewpoint Depression Visibility Wind Speed Wind Dir Waves Ship Positions

Mandarin Grace

Last reported at 2014-Jul-23 19:32 UTC. Time now 2014-Jul-23 19:48 UTC.
Position N 37°16' E 004°06'.

Length 190 m; draft 12.8 m.

Type: Cargo ship. MMSI: 563862000.

Date/timePositionNaut miles runAvg speedWind from/ knotsBaromVisibWave heightAir tempDewpointWater temp
2014-Jul-23 19:32N 37°16' E 004°06'1511.6
2014-Jul-23 18:13N 37°15' E 003°47'911.9
2014-Jul-23 17:26N 37°13' E 003°35'1112.1
2014-Jul-23 16:32N 37°12' E 003°22'1312.6
2014-Jul-23 15:32N 37°10' E 003°06'1312.8
2014-Jul-23 14:33N 37°08' E 002°51'1212.3
2014-Jul-23 13:33N 37°06' E 002°36'1313.3
2014-Jul-23 12:33N 37°03' E 002°19'1212.1
2014-Jul-23 11:33N 37°01' E 002°04'1211.8
2014-Jul-23 10:32N 36°59' E 001°49'1212.1
2014-Jul-23 09:31N 36°56' E 001°34'1212.4
2014-Jul-23 08:33N 36°54' E 001°20'1312.7
2014-Jul-23 07:33N 36°52' E 001°04'1212.4
2014-Jul-23 06:33N 36°50' E 000°49'1312.6
2014-Jul-23 05:33N 36°47' E 000°33'1312.6
2014-Jul-23 04:33N 36°45' E 000°18'1212.3
2014-Jul-23 03:33N 36°43' E 000°03'1212.3
2014-Jul-23 02:33N 36°40' W 000°12'1312.5
2014-Jul-23 01:33N 36°38' W 000°28'1212.4
2014-Jul-23 00:33N 36°36' W 000°43'1212.2
2014-Jul-22 23:33N 36°33' W 000°58'1211.9
2014-Jul-22 22:33N 36°31' W 001°12'1811.9
2014-Jul-22 21:04N 36°28' W 001°34'1112.1
2014-Jul-22 20:11N 36°26' W 001°47'812.1
2014-Jul-22 19:33N 36°25' W 001°56'1312.3
2014-Jul-22 18:31N 36°22' W 002°12'1111.8
2014-Jul-22 17:33N 36°21' W 002°26'145 6.0
2014-Jul-21 17:30N 35°59' W 005°23'22812.0
2014-Jul-20 22:29N 36°24' W 010°04'1212.1
2014-Jul-20 21:32N 36°27' W 010°18'58012.3
2014-Jul-18 22:17N 37°56' W 022°17'2312.2
2014-Jul-18 20:22N 37°57' W 022°47'1012.1
2014-Jul-18 19:30N 37°58' W 022°60'1212.1
2014-Jul-18 18:31N 37°59' W 023°15'1312.1
2014-Jul-18 17:26N 38°01' W 023°32'1111.8
2014-Jul-18 16:30N 38°01' W 023°45'1111.6
2014-Jul-18 15:34N 38°02' W 023°59'1211.6
2014-Jul-18 14:33N 38°02' W 024°14'1212.1
2014-Jul-18 13:33N 38°03' W 024°29'1211.7
2014-Jul-18 12:33N 38°04' W 024°44'1211.8
2014-Jul-18 11:33N 38°05' W 024°59'1212.0
2014-Jul-18 10:33N 38°06' W 025°14'1212.1
2014-Jul-18 09:33N 38°07' W 025°30'1212.2
2014-Jul-18 08:34N 38°08' W 025°45'1312.6
2014-Jul-18 07:33N 38°08' W 026°01'1312.7
2014-Jul-18 06:33N 38°08' W 026°17'1312.8
2014-Jul-18 05:33N 38°09' W 026°34'1312.6
2014-Jul-18 04:33N 38°09' W 026°50'1312.7
2014-Jul-18 03:33N 38°08' W 027°06'1212.0
2014-Jul-18 02:33N 38°07' W 027°21'1312.6
2014-Jul-18 01:34N 38°07' W 027°37'1312.7
2014-Jul-18 00:34N 38°07' W 027°53'1312.9
2014-Jul-17 23:33N 38°07' W 028°09'1312.9
2014-Jul-17 22:34N 38°07' W 028°26'1212.2
2014-Jul-17 21:33N 38°07' W 028°41'1212.3
2014-Jul-17 20:33N 38°07' W 028°57'1312.7
2014-Jul-17 19:33N 38°07' W 029°13'1312.5
2014-Jul-17 18:33N 38°08' W 029°29'1212.3
2014-Jul-17 17:34N 38°08' W 029°44'1312.5
2014-Jul-17 16:34N 38°08' W 030°00'1212.3
2014-Jul-17 15:33N 38°08' W 030°16'1313.1
2014-Jul-17 14:33N 38°09' W 030°33'1612.9
2014-Jul-17 13:19N 38°08' W 030°53'  
Track history (hours):
 
Tides and Currents Weather Stations Pressure Air Temp Water Temp Dewpoint Dewpoint Depression Visibility Wind Speed Wind Dir Waves Ship Positions

Mandarin Grace

Last reported at 2014-Jul-23 19:32 UTC. Time now 2014-Jul-23 19:48 UTC.
Position N 37°16' E 004°06'.

Length 190 m; draft 12.8 m.

Type: Cargo ship. MMSI: 563862000.

Date/timePositionNaut miles runAvg speedWind from/ knotsBaromVisibWave heightAir tempDewpointWater temp
2014-Jul-23 19:32N 37°16' E 004°06'1511.6
2014-Jul-23 18:13N 37°15' E 003°47'911.9
2014-Jul-23 17:26N 37°13' E 003°35'1112.1
2014-Jul-23 16:32N 37°12' E 003°22'1312.6
2014-Jul-23 15:32N 37°10' E 003°06'1312.8
2014-Jul-23 14:33N 37°08' E 002°51'1212.3
2014-Jul-23 13:33N 37°06' E 002°36'1313.3
2014-Jul-23 12:33N 37°03' E 002°19'1212.1
2014-Jul-23 11:33N 37°01' E 002°04'1211.8
2014-Jul-23 10:32N 36°59' E 001°49'1212.1
2014-Jul-23 09:31N 36°56' E 001°34'1212.4
2014-Jul-23 08:33N 36°54' E 001°20'1312.7
2014-Jul-23 07:33N 36°52' E 001°04'1212.4
2014-Jul-23 06:33N 36°50' E 000°49'1312.6
2014-Jul-23 05:33N 36°47' E 000°33'1312.6
2014-Jul-23 04:33N 36°45' E 000°18'1212.3
2014-Jul-23 03:33N 36°43' E 000°03'1212.3
2014-Jul-23 02:33N 36°40' W 000°12'1312.5
2014-Jul-23 01:33N 36°38' W 000°28'1212.4
2014-Jul-23 00:33N 36°36' W 000°43'1212.2
2014-Jul-22 23:33N 36°33' W 000°58'1211.9
2014-Jul-22 22:33N 36°31' W 001°12'1811.9
2014-Jul-22 21:04N 36°28' W 001°34'1112.1
2014-Jul-22 20:11N 36°26' W 001°47'812.1
2014-Jul-22 19:33N 36°25' W 001°56'1312.3
2014-Jul-22 18:31N 36°22' W 002°12'1111.8
2014-Jul-22 17:33N 36°21' W 002°26'145 6.0
2014-Jul-21 17:30N 35°59' W 005°23'22812.0
2014-Jul-20 22:29N 36°24' W 010°04'1212.1
2014-Jul-20 21:32N 36°27' W 010°18'58012.3
2014-Jul-18 22:17N 37°56' W 022°17'2312.2
2014-Jul-18 20:22N 37°57' W 022°47'1012.1
2014-Jul-18 19:30N 37°58' W 022°60'1212.1
2014-Jul-18 18:31N 37°59' W 023°15'1312.1
2014-Jul-18 17:26N 38°01' W 023°32'1111.8
2014-Jul-18 16:30N 38°01' W 023°45'1111.6
2014-Jul-18 15:34N 38°02' W 023°59'1211.6
2014-Jul-18 14:33N 38°02' W 024°14'1212.1
2014-Jul-18 13:33N 38°03' W 024°29'1211.7
2014-Jul-18 12:33N 38°04' W 024°44'1211.8
2014-Jul-18 11:33N 38°05' W 024°59'1212.0
2014-Jul-18 10:33N 38°06' W 025°14'1212.1
2014-Jul-18 09:33N 38°07' W 025°30'1212.2
2014-Jul-18 08:34N 38°08' W 025°45'1312.6
2014-Jul-18 07:33N 38°08' W 026°01'1312.7
2014-Jul-18 06:33N 38°08' W 026°17'1312.8
2014-Jul-18 05:33N 38°09' W 026°34'1312.6
2014-Jul-18 04:33N 38°09' W 026°50'1312.7
2014-Jul-18 03:33N 38°08' W 027°06'1212.0
2014-Jul-18 02:33N 38°07' W 027°21'1312.6
2014-Jul-18 01:34N 38°07' W 027°37'1312.7
2014-Jul-18 00:34N 38°07' W 027°53'1312.9
2014-Jul-17 23:33N 38°07' W 028°09'1312.9
2014-Jul-17 22:34N 38°07' W 028°26'1212.2
2014-Jul-17 21:33N 38°07' W 028°41'1212.3
2014-Jul-17 20:33N 38°07' W 028°57'1312.7
2014-Jul-17 19:33N 38°07' W 029°13'1312.5
2014-Jul-17 18:33N 38°08' W 029°29'1212.3
2014-Jul-17 17:34N 38°08' W 029°44'1312.5
2014-Jul-17 16:34N 38°08' W 030°00'1212.3
2014-Jul-17 15:33N 38°08' W 030°16'1313.1
2014-Jul-17 14:33N 38°09' W 030°33'1612.9
2014-Jul-17 13:19N 38°08' W 030°53'  

Dump ship's entire track history